DLH801 KJFK-EDDH
Flight info
| Callsign | DLH801 |
|---|---|
| Flight time | N/A |
| Altitude | 37000 |
| Route | KJFK/22R N0476F370 DCT PUT DCT BOS DCT TUSKY DCT ELSIR/M083F370 DCT 5050N DCT 5340N DCT 5430N DCT 5520N DCT RESNO/N0477F370 DCT NETKI DCT NIBOG DCT REMSI/N0481F390 DCT BELOX L603 LAMSO DCT SPY DCT ANDIK M105 RIBSO RIBS3D EDDH/15 |
| Aircraft | A346/H-VGDW/C |
Departure
| Time | 2026-05-09 14:02 |
|---|---|
| Airport | John F. Kennedy International Airport (KJFK) |
Arrival
| Time | N/A |
|---|---|
| Airport | Hamburg Helmut Schmidt Airport (EDDH) |
| Time | Latitude | Longitude | Altitude | Speed | Heading |
|---|---|---|---|---|---|
| 2026-05-09 13:29 | 40.64933 | -73.77936 | 29 ft | 0 kts | 210° |
| 2026-05-09 13:50 | 40.64934 | -73.77935 | 29 ft | 1 kts | 210° |
| 2026-05-09 13:50 | 40.64971 | -73.77929 | 27 ft | 9 kts | 164° |
| 2026-05-09 13:50 | 40.64983 | -73.77938 | 27 ft | 1 kts | 114° |
| 2026-05-09 13:50 | 40.64983 | -73.77937 | 26 ft | 0 kts | 114° |
| 2026-05-09 13:55 | 40.64971 | -73.77912 | 29 ft | 8 kts | 123° |
| 2026-05-09 13:56 | 40.64958 | -73.77826 | 28 ft | 11 kts | 69° |
| 2026-05-09 13:56 | 40.64967 | -73.77738 | 28 ft | 7 kts | 102° |
| 2026-05-09 13:56 | 40.64941 | -73.77662 | 28 ft | 10 kts | 118° |
| 2026-05-09 13:56 | 40.64915 | -73.77569 | 24 ft | 11 kts | 83° |
| 2026-05-09 13:57 | 40.64948 | -73.77500 | 28 ft | 0 kts | 43° |
| 2026-05-09 13:57 | 40.64949 | -73.77500 | 28 ft | 0 kts | 43° |
| 2026-05-09 13:57 | 40.64992 | -73.77457 | 28 ft | 14 kts | 30° |
| 2026-05-09 13:58 | 40.65086 | -73.77401 | 28 ft | 15 kts | 31° |
| 2026-05-09 13:58 | 40.65116 | -73.77303 | 29 ft | 13 kts | 103° |
| 2026-05-09 13:58 | 40.65073 | -73.77186 | 29 ft | 15 kts | 121° |
| 2026-05-09 13:58 | 40.65018 | -73.77063 | 29 ft | 16 kts | 121° |
| 2026-05-09 13:59 | 40.64957 | -73.76932 | 29 ft | 18 kts | 121° |
| 2026-05-09 13:59 | 40.64912 | -73.76834 | 30 ft | 19 kts | 121° |
| 2026-05-09 13:59 | 40.64896 | -73.76693 | 30 ft | 16 kts | 58° |
| 2026-05-09 13:59 | 40.65033 | -73.76578 | 29 ft | 19 kts | 29° |
| 2026-05-09 14:00 | 40.65094 | -73.76497 | 30 ft | 15 kts | 79° |
| 2026-05-09 14:00 | 40.65094 | -73.76477 | 30 ft | 0 kts | 98° |
| 2026-05-09 14:00 | 40.65089 | -73.76447 | 30 ft | 9 kts | 110° |
| 2026-05-09 14:01 | 40.65050 | -73.76371 | 31 ft | 11 kts | 146° |
| 2026-05-09 14:01 | 40.64994 | -73.76375 | 31 ft | 0 kts | 210° |
| 2026-05-09 14:01 | 40.64993 | -73.76376 | 31 ft | 1 kts | 210° |
| 2026-05-09 14:02 | 40.64775 | -73.76546 | 30 ft | 78 kts | 211° |
| 2026-05-09 14:02 | 40.64077 | -73.77095 | 31 ft | 151 kts | 211° |
| 2026-05-09 14:02 | 40.62992 | -73.77972 | 151 ft | 200 kts | 212° |
| 2026-05-09 14:02 | 40.61826 | -73.78973 | 1042 ft | 200 kts | 211° |
| 2026-05-09 14:03 | 40.60633 | -73.79846 | 2262 ft | 197 kts | 208° |
| 2026-05-09 14:03 | 40.59345 | -73.80649 | 3142 ft | 209 kts | 208° |
| 2026-05-09 14:03 | 40.57963 | -73.81477 | 3688 ft | 225 kts | 208° |
| 2026-05-09 14:03 | 40.56492 | -73.82366 | 4297 ft | 237 kts | 208° |
| 2026-05-09 14:04 | 40.54968 | -73.83195 | 4884 ft | 245 kts | 197° |
| 2026-05-09 14:04 | 40.53222 | -73.83165 | 5672 ft | 256 kts | 168° |
| 2026-05-09 14:04 | 40.51668 | -73.82004 | 6340 ft | 269 kts | 141° |
| 2026-05-09 14:04 | 40.50640 | -73.79891 | 6957 ft | 285 kts | 113° |
| 2026-05-09 14:05 | 40.50419 | -73.77252 | 7575 ft | 301 kts | 86° |
| 2026-05-09 14:05 | 40.51129 | -73.74616 | 8227 ft | 312 kts | 57° |
| 2026-05-09 14:05 | 40.52723 | -73.72664 | 8890 ft | 317 kts | 28° |
| 2026-05-09 14:05 | 40.54666 | -73.71315 | 9570 ft | 318 kts | 25° |
| 2026-05-09 14:06 | 40.56667 | -73.70021 | 10224 ft | 322 kts | 24° |
| 2026-05-09 14:06 | 40.58716 | -73.68686 | 10754 ft | 333 kts | 24° |
| 2026-05-09 14:06 | 40.60818 | -73.67294 | 11260 ft | 345 kts | 25° |
| 2026-05-09 14:06 | 40.63010 | -73.65816 | 11755 ft | 357 kts | 25° |
| 2026-05-09 14:07 | 40.65236 | -73.64297 | 12272 ft | 368 kts | 25° |
| 2026-05-09 14:07 | 40.67559 | -73.62698 | 12808 ft | 379 kts | 25° |
| 2026-05-09 14:07 | 40.69894 | -73.61090 | 13343 ft | 389 kts | 25° |
| 2026-05-09 14:07 | 40.72352 | -73.59400 | 13888 ft | 399 kts | 25° |
| 2026-05-09 14:08 | 40.74830 | -73.57695 | 14367 ft | 408 kts | 25° |
| 2026-05-09 14:08 | 40.77395 | -73.55928 | 14863 ft | 417 kts | 23° |
| 2026-05-09 14:08 | 40.79978 | -73.54161 | 15376 ft | 425 kts | 23° |
| 2026-05-09 14:08 | 40.82651 | -73.52333 | 15899 ft | 434 kts | 23° |
| 2026-05-09 14:09 | 40.85332 | -73.50491 | 16386 ft | 439 kts | 24° |
| 2026-05-09 14:09 | 40.87867 | -73.48126 | 16864 ft | 450 kts | 43° |
| 2026-05-09 14:09 | 40.89720 | -73.44791 | 17421 ft | 458 kts | 58° |
| 2026-05-09 14:09 | 40.91265 | -73.41057 | 17962 ft | 465 kts | 61° |
| 2026-05-09 14:10 | 40.94361 | -73.33427 | 18960 ft | 474 kts | 59° |
| 2026-05-09 14:10 | 40.96007 | -73.29601 | 19425 ft | 478 kts | 58° |
| 2026-05-09 14:10 | 40.97683 | -73.25817 | 19941 ft | 481 kts | 57° |
| 2026-05-09 14:11 | 40.99419 | -73.21979 | 20445 ft | 484 kts | 57° |
| 2026-05-09 14:11 | 41.01153 | -73.18174 | 20947 ft | 487 kts | 56° |
| 2026-05-09 14:11 | 41.02915 | -73.14318 | 21463 ft | 492 kts | 56° |
| 2026-05-09 14:11 | 41.04705 | -73.10399 | 21990 ft | 496 kts | 56° |
| 2026-05-09 14:12 | 41.06487 | -73.06495 | 22523 ft | 499 kts | 56° |
| 2026-05-09 14:12 | 41.08302 | -73.02511 | 23084 ft | 503 kts | 56° |
| 2026-05-09 14:12 | 41.10104 | -72.98553 | 23623 ft | 506 kts | 56° |
| 2026-05-09 14:12 | 41.11938 | -72.94516 | 24088 ft | 508 kts | 56° |
| 2026-05-09 14:13 | 41.13750 | -72.90519 | 24554 ft | 510 kts | 56° |
| 2026-05-09 14:14 | 41.26584 | -72.62097 | 28329 ft | 509 kts | 55° |
| 2026-05-09 14:15 | 41.28385 | -72.58088 | 28940 ft | 507 kts | 55° |
| 2026-05-09 14:15 | 41.30192 | -72.54048 | 29567 ft | 505 kts | 54° |
| 2026-05-09 14:15 | 41.31986 | -72.50044 | 30019 ft | 507 kts | 54° |
| 2026-05-09 14:15 | 41.33825 | -72.45951 | 30157 ft | 514 kts | 54° |
| 2026-05-09 14:16 | 41.35662 | -72.41853 | 30333 ft | 521 kts | 54° |
| 2026-05-09 14:16 | 41.37524 | -72.37690 | 30488 ft | 529 kts | 55° |
| 2026-05-09 14:16 | 41.39421 | -72.33434 | 30704 ft | 534 kts | 55° |
| 2026-05-09 14:16 | 41.41302 | -72.29198 | 31110 ft | 534 kts | 55° |
| 2026-05-09 14:17 | 41.43205 | -72.24904 | 31616 ft | 532 kts | 55° |
| 2026-05-09 14:17 | 41.45068 | -72.20702 | 32154 ft | 530 kts | 55° |
| 2026-05-09 14:17 | 41.46958 | -72.16431 | 32669 ft | 528 kts | 55° |
| 2026-05-09 14:17 | 41.48823 | -72.12214 | 33139 ft | 527 kts | 55° |
| 2026-05-09 14:18 | 41.50665 | -72.08044 | 33608 ft | 526 kts | 55° |
| 2026-05-09 14:18 | 41.52530 | -72.03821 | 34063 ft | 525 kts | 55° |
| 2026-05-09 14:18 | 41.54359 | -71.99675 | 34438 ft | 524 kts | 55° |
| 2026-05-09 14:18 | 41.56204 | -71.95488 | 34740 ft | 525 kts | 55° |
| 2026-05-09 14:19 | 41.58064 | -71.91258 | 35049 ft | 526 kts | 55° |
| 2026-05-09 14:19 | 41.59900 | -71.87063 | 35330 ft | 528 kts | 55° |
| 2026-05-09 14:19 | 41.61763 | -71.82805 | 35546 ft | 530 kts | 56° |
| 2026-05-09 14:19 | 41.63640 | -71.78507 | 35775 ft | 532 kts | 55° |
| 2026-05-09 14:20 | 41.65496 | -71.74257 | 35950 ft | 534 kts | 56° |
| 2026-05-09 14:20 | 41.67385 | -71.69921 | 36162 ft | 536 kts | 56° |
| 2026-05-09 14:20 | 41.69257 | -71.65616 | 36372 ft | 538 kts | 56° |
| 2026-05-09 14:21 | 41.73009 | -71.56972 | 36817 ft | 541 kts | 56° |
| 2026-05-09 14:21 | 41.74894 | -71.52625 | 36976 ft | 543 kts | 56° |
| 2026-05-09 14:21 | 41.78716 | -71.43800 | 37042 ft | 546 kts | 56° |
| 2026-05-09 14:22 | 41.82514 | -71.34989 | 37044 ft | 546 kts | 56° |
| 2026-05-09 14:22 | 41.86330 | -71.26109 | 37037 ft | 546 kts | 56° |
| 2026-05-09 14:23 | 41.90114 | -71.17272 | 37054 ft | 547 kts | 56° |
| 2026-05-09 14:23 | 41.93889 | -71.08437 | 37045 ft | 547 kts | 56° |
| 2026-05-09 14:24 | 41.97653 | -70.99607 | 37049 ft | 547 kts | 56° |
| 2026-05-09 14:24 | 42.01431 | -70.90735 | 37043 ft | 547 kts | 56° |
| 2026-05-09 14:25 | 42.05179 | -70.81862 | 37049 ft | 547 kts | 56° |
| 2026-05-09 14:25 | 42.08931 | -70.72960 | 37044 ft | 547 kts | 56° |
| 2026-05-09 14:26 | 42.12688 | -70.64033 | 37045 ft | 546 kts | 56° |
| 2026-05-09 14:26 | 42.16423 | -70.55134 | 37072 ft | 547 kts | 56° |
| 2026-05-09 14:27 | 42.20147 | -70.46233 | 37062 ft | 546 kts | 56° |
| 2026-05-09 14:27 | 42.23881 | -70.37286 | 37065 ft | 546 kts | 56° |
| 2026-05-09 14:28 | 42.27614 | -70.28324 | 37068 ft | 546 kts | 56° |
| 2026-05-09 14:28 | 42.31340 | -70.19366 | 37074 ft | 546 kts | 56° |
| 2026-05-09 14:29 | 42.35045 | -70.10401 | 37070 ft | 546 kts | 56° |
| 2026-05-09 14:29 | 42.38730 | -70.01450 | 37074 ft | 546 kts | 56° |
| 2026-05-09 14:30 | 42.42431 | -69.92464 | 37077 ft | 546 kts | 56° |
| 2026-05-09 14:30 | 42.46165 | -69.83359 | 37080 ft | 556 kts | 56° |
| 2026-05-09 14:31 | 42.49892 | -69.74186 | 37076 ft | 557 kts | 57° |
| 2026-05-09 14:31 | 42.53648 | -69.64938 | 37079 ft | 557 kts | 56° |
| 2026-05-09 14:32 | 42.57365 | -69.55786 | 37100 ft | 557 kts | 56° |
| 2026-05-09 14:32 | 42.61115 | -69.46531 | 37083 ft | 557 kts | 56° |
| 2026-05-09 14:33 | 42.64834 | -69.37321 | 37086 ft | 556 kts | 56° |
| 2026-05-09 14:33 | 42.68553 | -69.28073 | 37081 ft | 556 kts | 57° |
| 2026-05-09 14:34 | 42.72265 | -69.18787 | 37082 ft | 556 kts | 57° |
| 2026-05-09 14:34 | 42.75949 | -69.09547 | 37092 ft | 555 kts | 57° |
| 2026-05-09 14:35 | 42.79633 | -69.00282 | 37089 ft | 555 kts | 57° |
| 2026-05-09 14:35 | 42.83299 | -68.91034 | 37091 ft | 555 kts | 57° |
| 2026-05-09 14:36 | 42.86949 | -68.81809 | 37086 ft | 555 kts | 57° |
| 2026-05-09 14:36 | 42.90613 | -68.72528 | 37096 ft | 554 kts | 57° |
| 2026-05-09 14:37 | 42.94269 | -68.63244 | 37101 ft | 554 kts | 57° |
| 2026-05-09 14:37 | 42.97912 | -68.53961 | 37113 ft | 554 kts | 57° |
| 2026-05-09 14:38 | 43.01516 | -68.44715 | 37089 ft | 554 kts | 57° |
| 2026-05-09 14:38 | 43.05136 | -68.35420 | 37099 ft | 553 kts | 57° |
| 2026-05-09 14:39 | 43.08744 | -68.26129 | 37132 ft | 553 kts | 57° |
| 2026-05-09 14:39 | 43.12352 | -68.16800 | 37106 ft | 553 kts | 57° |
| 2026-05-09 14:40 | 43.15962 | -68.07431 | 37111 ft | 553 kts | 57° |
| 2026-05-09 14:40 | 43.19537 | -67.98133 | 37105 ft | 553 kts | 57° |
| 2026-05-09 14:41 | 43.23110 | -67.88809 | 37110 ft | 553 kts | 58° |
| 2026-05-09 14:41 | 43.26678 | -67.79427 | 37105 ft | 552 kts | 58° |
| 2026-05-09 14:42 | 43.30231 | -67.70070 | 37105 ft | 552 kts | 58° |
| 2026-05-09 14:42 | 43.33764 | -67.60747 | 37139 ft | 552 kts | 58° |
| 2026-05-09 14:43 | 43.37313 | -67.51371 | 37110 ft | 553 kts | 58° |
| 2026-05-09 14:43 | 43.40864 | -67.41939 | 37111 ft | 553 kts | 58° |
| 2026-05-09 14:44 | 43.44380 | -67.32544 | 37108 ft | 553 kts | 58° |
| 2026-05-09 14:44 | 43.47912 | -67.23100 | 37121 ft | 551 kts | 59° |
| 2026-05-09 14:45 | 43.51377 | -67.13795 | 37111 ft | 542 kts | 59° |
| 2026-05-09 14:45 | 43.54810 | -67.04572 | 37109 ft | 541 kts | 58° |
| 2026-05-09 14:46 | 43.57955 | -66.97131 | 37115 ft | 538 kts | 52° |
| 2026-05-09 14:46 | 43.62193 | -66.88681 | 37127 ft | 536 kts | 50° |
| 2026-05-09 14:47 | 43.66509 | -66.80279 | 37116 ft | 535 kts | 50° |
| 2026-05-09 14:47 | 43.70799 | -66.71867 | 37098 ft | 535 kts | 50° |
| 2026-05-09 14:48 | 43.75081 | -66.63426 | 37122 ft | 534 kts | 51° |
| 2026-05-09 14:48 | 43.79330 | -66.55005 | 37115 ft | 534 kts | 51° |
| 2026-05-09 14:49 | 43.83564 | -66.46585 | 37113 ft | 534 kts | 51° |
| 2026-05-09 14:49 | 43.87801 | -66.38134 | 37135 ft | 534 kts | 51° |
| 2026-05-09 14:50 | 43.92030 | -66.29680 | 37121 ft | 532 kts | 51° |
| 2026-05-09 14:50 | 43.96231 | -66.21264 | 37116 ft | 532 kts | 51° |
| 2026-05-09 14:51 | 44.00450 | -66.12779 | 37115 ft | 532 kts | 52° |
| 2026-05-09 14:51 | 44.04647 | -66.04307 | 37117 ft | 531 kts | 52° |
| 2026-05-09 14:52 | 44.08829 | -65.95841 | 37108 ft | 531 kts | 52° |
| 2026-05-09 14:52 | 44.13002 | -65.87370 | 37104 ft | 531 kts | 52° |
| 2026-05-09 14:53 | 44.17191 | -65.78844 | 37100 ft | 531 kts | 52° |
| 2026-05-09 14:53 | 44.21358 | -65.70341 | 37097 ft | 531 kts | 52° |
| 2026-05-09 14:54 | 44.25520 | -65.61821 | 37100 ft | 531 kts | 52° |
| 2026-05-09 14:54 | 44.29659 | -65.53326 | 37107 ft | 531 kts | 52° |
| 2026-05-09 14:55 | 44.33817 | -65.44762 | 37099 ft | 530 kts | 53° |
| 2026-05-09 14:55 | 44.37935 | -65.36254 | 37098 ft | 530 kts | 53° |
| 2026-05-09 14:56 | 44.42078 | -65.27672 | 37082 ft | 531 kts | 53° |
| 2026-05-09 14:56 | 44.46169 | -65.19181 | 37095 ft | 530 kts | 53° |
| 2026-05-09 14:57 | 44.50297 | -65.10568 | 37091 ft | 530 kts | 53° |
| 2026-05-09 14:57 | 44.54417 | -65.01954 | 37088 ft | 530 kts | 53° |
| 2026-05-09 14:58 | 44.58516 | -64.93373 | 37085 ft | 529 kts | 53° |
| 2026-05-09 14:58 | 44.62587 | -64.84819 | 37071 ft | 529 kts | 53° |
| 2026-05-09 14:59 | 44.66664 | -64.76221 | 37072 ft | 529 kts | 53° |
| 2026-05-09 14:59 | 44.70735 | -64.67612 | 37077 ft | 529 kts | 54° |
| 2026-05-09 15:00 | 44.74813 | -64.58967 | 37065 ft | 528 kts | 54° |
| 2026-05-09 15:00 | 44.78865 | -64.50347 | 37055 ft | 527 kts | 54° |